sensor_id;sensor_type;location;lat;lon;timestamp;pressure;altitude;pressure_sealevel;temperature;humidity
72798;BME280;61084;55.816;37.036;2023-01-05T00:02:00;98669.28;;;-0.13;71.62
72798;BME280;61084;55.816;37.036;2023-01-05T00:04:26;98671.00;;;-0.15;71.21
72798;BME280;61084;55.816;37.036;2023-01-05T00:07:10;98670.13;;;-0.14;71.52
72798;BME280;61084;55.816;37.036;2023-01-05T00:09:36;98682.97;;;-0.13;71.59
72798;BME280;61084;55.816;37.036;2023-01-05T00:12:04;98675.25;;;-0.13;71.97
72798;BME280;61084;55.816;37.036;2023-01-05T00:14:48;98664.97;;;-0.14;71.98
72798;BME280;61084;55.816;37.036;2023-01-05T00:17:32;98666.75;;;-0.16;71.82
72798;BME280;61084;55.816;37.036;2023-01-05T00:20:19;98661.63;;;-0.18;72.13
72798;BME280;61084;55.816;37.036;2023-01-05T00:23:04;98664.13;;;-0.15;71.85
72798;BME280;61084;55.816;37.036;2023-01-05T00:25:34;98653.91;;;-0.19;72.08
72798;BME280;61084;55.816;37.036;2023-01-05T00:28:00;98642.63;;;-0.15;71.89
72798;BME280;61084;55.816;37.036;2023-01-05T00:30:33;98651.31;;;-0.18;71.55
72798;BME280;61084;55.816;37.036;2023-01-05T00:33:00;98641.88;;;-0.19;71.93
72798;BME280;61084;55.816;37.036;2023-01-05T00:35:27;98639.25;;;-0.16;71.83
72798;BME280;61084;55.816;37.036;2023-01-05T00:37:54;98644.34;;;-0.14;72.07
72798;BME280;61084;55.816;37.036;2023-01-05T00:40:20;98646.16;;;-0.18;72.02
72798;BME280;61084;55.816;37.036;2023-01-05T00:42:47;98636.63;;;-0.14;71.70
72798;BME280;61084;55.816;37.036;2023-01-05T00:45:15;98637.56;;;-0.18;71.42
72798;BME280;61084;55.816;37.036;2023-01-05T00:47:42;98637.78;;;-0.27;71.48
72798;BME280;61084;55.816;37.036;2023-01-05T00:50:10;98639.59;;;-0.32;71.18
72798;BME280;61084;55.816;37.036;2023-01-05T00:52:37;98639.69;;;-0.37;71.15
72798;BME280;61084;55.816;37.036;2023-01-05T00:55:03;98636.53;;;-0.49;71.04
72798;BME280;61084;55.816;37.036;2023-01-05T00:57:29;98630.75;;;-0.59;70.66
72798;BME280;61084;55.816;37.036;2023-01-05T00:59:55;98636.00;;;-0.65;71.11
72798;BME280;61084;55.816;37.036;2023-01-05T01:02:21;98625.06;;;-0.74;71.28
72798;BME280;61084;55.816;37.036;2023-01-05T01:04:46;98627.63;;;-0.76;71.58
72798;BME280;61084;55.816;37.036;2023-01-05T01:07:12;98623.44;;;-0.79;71.63
72798;BME280;61084;55.816;37.036;2023-01-05T01:09:38;98631.19;;;-0.82;71.72
72798;BME280;61084;55.816;37.036;2023-01-05T01:12:22;98630.34;;;-0.82;71.84
72798;BME280;61084;55.816;37.036;2023-01-05T01:14:49;98621.00;;;-0.86;71.74
72798;BME280;61084;55.816;37.036;2023-01-05T01:17:15;98625.38;;;-0.90;71.81
72798;BME280;61084;55.816;37.036;2023-01-05T01:19:42;98620.31;;;-0.94;71.64
72798;BME280;61084;55.816;37.036;2023-01-05T01:22:08;98618.59;;;-0.94;71.80
72798;BME280;61084;55.816;37.036;2023-01-05T01:24:34;98622.88;;;-0.94;71.55
72798;BME280;61084;55.816;37.036;2023-01-05T01:26:59;98615.13;;;-0.93;71.86
72798;BME280;61084;55.816;37.036;2023-01-05T01:29:25;98615.88;;;-0.89;71.55
72798;BME280;61084;55.816;37.036;2023-01-05T01:31:52;98612.34;;;-0.84;71.81
72798;BME280;61084;55.816;37.036;2023-01-05T01:34:18;98608.88;;;-0.81;71.35
72798;BME280;61084;55.816;37.036;2023-01-05T01:36:44;98608.88;;;-0.83;71.95
72798;BME280;61084;55.816;37.036;2023-01-05T01:39:12;98613.13;;;-0.79;71.54
72798;BME280;61084;55.816;37.036;2023-01-05T01:41:41;98617.38;;;-0.78;71.41
72798;BME280;61084;55.816;37.036;2023-01-05T01:47:16;98613.00;;;-0.72;71.35
72798;BME280;61084;55.816;37.036;2023-01-05T01:49:44;98616.41;;;-0.72;71.29
72798;BME280;61084;55.816;37.036;2023-01-05T01:52:10;98611.19;;;-0.69;71.10
72798;BME280;61084;55.816;37.036;2023-01-05T01:54:36;98610.28;;;-0.66;71.69
72798;BME280;61084;55.816;37.036;2023-01-05T01:57:02;98620.59;;;-0.66;71.51
72798;BME280;61084;55.816;37.036;2023-01-05T01:59:28;98612.91;;;-0.68;71.29
72798;BME280;61084;55.816;37.036;2023-01-05T02:01:58;98610.28;;;-0.66;71.04
72798;BME280;61084;55.816;37.036;2023-01-05T02:04:26;98611.19;;;-0.67;70.91
72798;BME280;61084;55.816;37.036;2023-01-05T02:06:54;98610.31;;;-0.69;71.03
72798;BME280;61084;55.816;37.036;2023-01-05T02:09:20;98608.59;;;-0.67;71.19
72798;BME280;61084;55.816;37.036;2023-01-05T02:12:00;98611.25;;;-0.72;70.87
72798;BME280;61084;55.816;37.036;2023-01-05T02:26:03;98604.97;;;-1.02;71.09
72798;BME280;61084;55.816;37.036;2023-01-05T02:31:38;98602.50;;;-1.06;71.09
72798;BME280;61084;55.816;37.036;2023-01-05T02:34:07;98597.56;;;-1.15;70.96
72798;BME280;61084;55.816;37.036;2023-01-05T02:36:43;98595.88;;;-1.19;70.82
72798;BME280;61084;55.816;37.036;2023-01-05T02:42:02;98586.50;;;-1.20;70.67
72798;BME280;61084;55.816;37.036;2023-01-05T02:44:32;98592.50;;;-1.21;70.87
72798;BME280;61084;55.816;37.036;2023-01-05T02:47:06;98588.16;;;-1.18;70.69
72798;BME280;61084;55.816;37.036;2023-01-05T02:50:00;98585.50;;;-1.15;70.61
72798;BME280;61084;55.816;37.036;2023-01-05T02:52:38;98588.09;;;-1.15;70.82
72798;BME280;61084;55.816;37.036;2023-01-05T02:55:10;98581.19;;;-1.13;70.44
72798;BME280;61084;55.816;37.036;2023-01-05T02:57:46;98577.66;;;-1.07;70.59
72798;BME280;61084;55.816;37.036;2023-01-05T03:00:23;98575.09;;;-1.09;70.17
72798;BME280;61084;55.816;37.036;2023-01-05T03:02:53;98572.63;;;-1.13;70.30
72798;BME280;61084;55.816;37.036;2023-01-05T03:05:42;98571.81;;;-1.17;70.37
72798;BME280;61084;55.816;37.036;2023-01-05T03:08:13;98565.97;;;-1.25;70.40
72798;BME280;61084;55.816;37.036;2023-01-05T03:11:05;98553.16;;;-1.26;70.46
72798;BME280;61084;55.816;37.036;2023-01-05T03:13:56;98564.28;;;-1.26;70.24
72798;BME280;61084;55.816;37.036;2023-01-05T03:16:27;98560.88;;;-1.26;70.09
72798;BME280;61084;55.816;37.036;2023-01-05T03:18:58;98556.63;;;-1.29;70.19
72798;BME280;61084;55.816;37.036;2023-01-05T03:21:45;98548.97;;;-1.32;70.37
72798;BME280;61084;55.816;37.036;2023-01-05T03:24:36;98550.81;;;-1.38;70.10
72798;BME280;61084;55.816;37.036;2023-01-05T03:27:23;98545.72;;;-1.41;69.59
72798;BME280;61084;55.816;37.036;2023-01-05T03:30:09;98539.75;;;-1.43;70.06
72798;BME280;61084;55.816;37.036;2023-01-05T03:33:05;98545.78;;;-1.44;69.49
72798;BME280;61084;55.816;37.036;2023-01-05T03:35:56;98538.09;;;-1.46;69.67
72798;BME280;61084;55.816;37.036;2023-01-05T03:38:30;98538.97;;;-1.47;69.36
72798;BME280;61084;55.816;37.036;2023-01-05T03:41:02;98538.09;;;-1.47;69.74
72798;BME280;61084;55.816;37.036;2023-01-05T03:43:32;98539.03;;;-1.52;69.50
72798;BME280;61084;55.816;37.036;2023-01-05T03:45:59;98551.03;;;-1.50;69.24
72798;BME280;61084;55.816;37.036;2023-01-05T03:48:27;98551.00;;;-1.49;69.54
72798;BME280;61084;55.816;37.036;2023-01-05T03:51:14;98538.19;;;-1.52;69.38
72798;BME280;61084;55.816;37.036;2023-01-05T03:53:41;98533.03;;;-1.50;69.18
72798;BME280;61084;55.816;37.036;2023-01-05T03:56:07;98538.19;;;-1.50;69.90
72798;BME280;61084;55.816;37.036;2023-01-05T03:58:34;98540.72;;;-1.49;69.75
72798;BME280;61084;55.816;37.036;2023-01-05T04:01:00;98533.03;;;-1.50;69.65
72798;BME280;61084;55.816;37.036;2023-01-05T04:03:44;98533.03;;;-1.50;69.34
72798;BME280;61084;55.816;37.036;2023-01-05T04:06:10;98540.72;;;-1.49;69.57
72798;BME280;61084;55.816;37.036;2023-01-05T04:08:37;98536.47;;;-1.52;69.13
72798;BME280;61084;55.816;37.036;2023-01-05T04:11:18;98536.56;;;-1.55;69.26
72798;BME280;61084;55.816;37.036;2023-01-05T04:13:51;98535.66;;;-1.54;69.63
72798;BME280;61084;55.816;37.036;2023-01-05T04:16:17;98539.13;;;-1.55;69.58
72798;BME280;61084;55.816;37.036;2023-01-05T04:18:44;98534.78;;;-1.52;69.30
72798;BME280;61084;55.816;37.036;2023-01-05T04:21:11;98533.91;;;-1.52;69.11
72798;BME280;61084;55.816;37.036;2023-01-05T04:23:38;98538.19;;;-1.50;69.37
72798;BME280;61084;55.816;37.036;2023-01-05T04:26:04;98532.13;;;-1.48;69.63
72798;BME280;61084;55.816;37.036;2023-01-05T04:28:32;98527.00;;;-1.48;69.18
72798;BME280;61084;55.816;37.036;2023-01-05T04:30:58;98527.00;;;-1.48;69.35
72798;BME280;61084;55.816;37.036;2023-01-05T04:33:25;98522.72;;;-1.49;69.39
72798;BME280;61084;55.816;37.036;2023-01-05T04:35:52;98522.72;;;-1.49;69.33
72798;BME280;61084;55.816;37.036;2023-01-05T04:38:18;98524.44;;;-1.49;69.38
72798;BME280;61084;55.816;37.036;2023-01-05T04:40:49;98523.56;;;-1.48;69.18
72798;BME280;61084;55.816;37.036;2023-01-05T04:43:15;98520.13;;;-1.49;69.38
72798;BME280;61084;55.816;37.036;2023-01-05T04:45:42;98519.28;;;-1.48;69.07
72798;BME280;61084;55.816;37.036;2023-01-05T04:48:07;98521.84;;;-1.49;69.25
72798;BME280;61084;55.816;37.036;2023-01-05T04:50:33;98520.13;;;-1.49;69.10
72798;BME280;61084;55.816;37.036;2023-01-05T04:52:59;98515.88;;;-1.52;69.11
72798;BME280;61084;55.816;37.036;2023-01-05T04:55:27;98508.22;;;-1.53;69.27
72798;BME280;61084;55.816;37.036;2023-01-05T04:58:12;98509.06;;;-1.54;69.22
72798;BME280;61084;55.816;37.036;2023-01-05T05:00:40;98511.72;;;-1.59;69.28
72798;BME280;61084;55.816;37.036;2023-01-05T05:03:06;98510.91;;;-1.61;68.79
72798;BME280;61084;55.816;37.036;2023-01-05T05:05:33;98507.53;;;-1.61;69.10
72798;BME280;61084;55.816;37.036;2023-01-05T05:08:00;98510.06;;;-1.60;69.09
72798;BME280;61084;55.816;37.036;2023-01-05T05:10:28;98498.91;;;-1.60;68.72
72798;BME280;61084;55.816;37.036;2023-01-05T05:12:53;98505.78;;;-1.61;69.20
72798;BME280;61084;55.816;37.036;2023-01-05T05:15:38;98501.53;;;-1.62;68.83
72798;BME280;61084;55.816;37.036;2023-01-05T05:18:04;98499.81;;;-1.63;68.74
72798;BME280;61084;55.816;37.036;2023-01-05T05:20:31;98492.16;;;-1.66;68.95
72798;BME280;61084;55.816;37.036;2023-01-05T05:22:57;98501.56;;;-1.65;69.10
72798;BME280;61084;55.816;37.036;2023-01-05T05:25:23;98498.13;;;-1.65;69.09
72798;BME280;61084;55.816;37.036;2023-01-05T05:27:49;98500.75;;;-1.67;68.92
72798;BME280;61084;55.816;37.036;2023-01-05T05:30:15;98493.94;;;-1.68;68.80
72798;BME280;61084;55.816;37.036;2023-01-05T05:32:41;98497.38;;;-1.69;68.81
72798;BME280;61084;55.816;37.036;2023-01-05T05:35:07;98493.09;;;-1.70;68.87
72798;BME280;61084;55.816;37.036;2023-01-05T05:37:33;98495.66;;;-1.70;69.07
72798;BME280;61084;55.816;37.036;2023-01-05T05:39:59;98489.69;;;-1.70;68.74
72798;BME280;61084;55.816;37.036;2023-01-05T05:42:24;98484.50;;;-1.69;68.91
72798;BME280;61084;55.816;37.036;2023-01-05T05:44:50;98490.50;;;-1.70;68.64
72798;BME280;61084;55.816;37.036;2023-01-05T05:47:16;98493.97;;;-1.71;69.05
72798;BME280;61084;55.816;37.036;2023-01-05T05:49:42;98491.44;;;-1.72;68.71
72798;BME280;61084;55.816;37.036;2023-01-05T05:52:07;98491.47;;;-1.75;69.05
72798;BME280;61084;55.816;37.036;2023-01-05T05:54:33;98488.94;;;-1.77;68.61
72798;BME280;61084;55.816;37.036;2023-01-05T05:56:59;98488.06;;;-1.76;69.04
72798;BME280;61084;55.816;37.036;2023-01-05T05:59:24;98491.53;;;-1.77;68.68
72798;BME280;61084;55.816;37.036;2023-01-05T06:01:50;98492.38;;;-1.76;68.76
72798;BME280;61084;55.816;37.036;2023-01-05T06:04:17;98479.53;;;-1.78;68.45
72798;BME280;61084;55.816;37.036;2023-01-05T06:06:43;98482.09;;;-1.78;68.65
72798;BME280;61084;55.816;37.036;2023-01-05T06:09:08;98479.59;;;-1.81;68.73
72798;BME280;61084;55.816;37.036;2023-01-05T06:11:34;98477.91;;;-1.82;68.82
72798;BME280;61084;55.816;37.036;2023-01-05T06:14:00;98481.28;;;-1.80;68.80
72798;BME280;61084;55.816;37.036;2023-01-05T06:16:44;98476.13;;;-1.80;68.62
72798;BME280;61084;55.816;37.036;2023-01-05T06:19:10;98478.75;;;-1.81;68.79
72798;BME280;61084;55.816;37.036;2023-01-05T06:21:36;98470.22;;;-1.83;68.92
72798;BME280;61084;55.816;37.036;2023-01-05T06:24:02;98471.09;;;-1.84;68.46
72798;BME280;61084;55.816;37.036;2023-01-05T06:26:28;98465.09;;;-1.85;68.76
72798;BME280;61084;55.816;37.036;2023-01-05T06:29:13;98462.50;;;-1.83;68.70
72798;BME280;61084;55.816;37.036;2023-01-05T06:31:38;98474.53;;;-1.85;68.73
72798;BME280;61084;55.816;37.036;2023-01-05T06:34:04;98465.09;;;-1.85;68.77
72798;BME280;61084;55.816;37.036;2023-01-05T06:36:30;98465.06;;;-1.83;68.92
72798;BME280;61084;55.816;37.036;2023-01-05T06:38:56;98455.66;;;-1.84;69.09
72798;BME280;61084;55.816;37.036;2023-01-05T06:41:21;98455.66;;;-1.83;68.75
72798;BME280;61084;55.816;37.036;2023-01-05T06:43:47;98462.47;;;-1.82;68.68
72798;BME280;61084;55.816;37.036;2023-01-05T06:46:13;98461.59;;;-1.81;68.89
72798;BME280;61084;55.816;37.036;2023-01-05T06:48:38;98460.72;;;-1.80;68.75
72798;BME280;61084;55.816;37.036;2023-01-05T06:51:04;98463.25;;;-1.78;68.84
72798;BME280;61084;55.816;37.036;2023-01-05T06:53:30;98454.72;;;-1.79;68.65
72798;BME280;61084;55.816;37.036;2023-01-05T06:55:56;98449.56;;;-1.80;69.14
72798;BME280;61084;55.816;37.036;2023-01-05T06:58:22;98462.41;;;-1.79;68.70
72798;BME280;61084;55.816;37.036;2023-01-05T07:00:47;98458.94;;;-1.78;68.72
72798;BME280;61084;55.816;37.036;2023-01-05T07:03:13;98453.06;;;-1.83;68.81
72798;BME280;61084;55.816;37.036;2023-01-05T07:05:39;98458.25;;;-1.86;69.12
72798;BME280;61084;55.816;37.036;2023-01-05T07:08:06;98455.59;;;-1.81;69.21
72798;BME280;61084;55.816;37.036;2023-01-05T07:10:32;98461.53;;;-1.76;69.08
72798;BME280;61084;55.816;37.036;2023-01-05T07:12:57;98462.28;;;-1.73;69.15
72798;BME280;61084;55.816;37.036;2023-01-05T07:15:23;98463.97;;;-1.70;69.32
72798;BME280;61084;55.816;37.036;2023-01-05T07:17:49;98452.78;;;-1.68;68.97
72798;BME280;61084;55.816;37.036;2023-01-05T07:20:15;98461.31;;;-1.67;68.77
72798;BME280;61084;55.816;37.036;2023-01-05T07:22:40;98458.69;;;-1.64;68.89
72798;BME280;61084;55.816;37.036;2023-01-05T07:25:06;98462.13;;;-1.64;69.17
72798;BME280;61084;55.816;37.036;2023-01-05T07:27:33;98457.81;;;-1.63;69.11
72798;BME280;61084;55.816;37.036;2023-01-05T07:29:58;98468.84;;;-1.58;68.75
72798;BME280;61084;55.816;37.036;2023-01-05T07:32:24;98459.34;;;-1.53;68.96
72798;BME280;61084;55.816;37.036;2023-01-05T07:34:50;98459.38;;;-1.55;68.60
72798;BME280;61084;55.816;37.036;2023-01-05T07:37:16;98467.06;;;-1.53;68.78
72798;BME280;61084;55.816;37.036;2023-01-05T07:39:42;98464.44;;;-1.52;69.06
72798;BME280;61084;55.816;37.036;2023-01-05T07:42:07;98461.81;;;-1.50;68.60
72798;BME280;61084;55.816;37.036;2023-01-05T07:44:35;98468.63;;;-1.46;68.51
72798;BME280;61084;55.816;37.036;2023-01-05T07:47:19;98467.69;;;-1.43;68.80
72798;BME280;61084;55.816;37.036;2023-01-05T07:49:45;98460.00;;;-1.45;68.43
72798;BME280;61084;55.816;37.036;2023-01-05T07:52:11;98459.19;;;-1.47;68.32
72798;BME280;61084;55.816;37.036;2023-01-05T07:54:36;98455.78;;;-1.47;68.36
72798;BME280;61084;55.816;37.036;2023-01-05T07:57:02;98454.09;;;-1.48;68.24
72798;BME280;61084;55.816;37.036;2023-01-05T07:59:28;98459.25;;;-1.48;68.21
72798;BME280;61084;55.816;37.036;2023-01-05T08:01:54;98457.47;;;-1.46;68.31
72798;BME280;61084;55.816;37.036;2023-01-05T08:04:19;98454.06;;;-1.47;68.44
72798;BME280;61084;55.816;37.036;2023-01-05T08:06:45;98454.00;;;-1.45;68.17
72798;BME280;61084;55.816;37.036;2023-01-05T08:09:11;98454.81;;;-1.43;68.21
72798;BME280;61084;55.816;37.036;2023-01-05T08:11:55;98449.69;;;-1.43;68.20
72798;BME280;61084;55.816;37.036;2023-01-05T08:14:21;98447.91;;;-1.40;68.06
72798;BME280;61084;55.816;37.036;2023-01-05T08:16:46;98455.59;;;-1.38;68.25
72798;BME280;61084;55.816;37.036;2023-01-05T08:19:12;98447.88;;;-1.38;68.51
72798;BME280;61084;55.816;37.036;2023-01-05T08:21:38;98448.72;;;-1.38;68.33
72798;BME280;61084;55.816;37.036;2023-01-05T08:24:22;98454.69;;;-1.36;68.28
72798;BME280;61084;55.816;37.036;2023-01-05T08:26:49;98454.66;;;-1.34;68.47
72798;BME280;61084;55.816;37.036;2023-01-05T08:29:15;98452.94;;;-1.34;67.96
72798;BME280;61084;55.816;37.036;2023-01-05T08:31:41;98447.72;;;-1.31;68.24
72798;BME280;61084;55.816;37.036;2023-01-05T08:34:07;98438.25;;;-1.30;68.16
72798;BME280;61084;55.816;37.036;2023-01-05T08:36:32;98435.66;;;-1.29;68.05
72798;BME280;61084;55.816;37.036;2023-01-05T08:38:59;98429.63;;;-1.28;67.99
72798;BME280;61084;55.816;37.036;2023-01-05T08:41:29;98443.44;;;-1.32;67.95
72798;BME280;61084;55.816;37.036;2023-01-05T08:43:57;98436.63;;;-1.34;67.97
72798;BME280;61084;55.816;37.036;2023-01-05T08:46:25;98435.81;;;-1.36;68.13
72798;BME280;61084;55.816;37.036;2023-01-05T08:48:53;98428.28;;;-1.44;67.89
72798;BME280;61084;55.816;37.036;2023-01-05T08:51:19;98430.22;;;-1.55;68.22
72798;BME280;61084;55.816;37.036;2023-01-05T08:53:46;98435.59;;;-1.67;67.27
72798;BME280;61084;55.816;37.036;2023-01-05T08:56:12;98428.22;;;-1.84;67.57
72798;BME280;61084;55.816;37.036;2023-01-05T08:58:56;98429.22;;;-1.91;67.75
72798;BME280;61084;55.816;37.036;2023-01-05T09:01:24;98422.47;;;-1.98;68.05
72798;BME280;61084;55.816;37.036;2023-01-05T09:03:49;98428.66;;;-2.06;67.95
72798;BME280;61084;55.816;37.036;2023-01-05T09:06:16;98422.72;;;-2.10;67.65
72798;BME280;61084;55.816;37.036;2023-01-05T09:08:43;98420.13;;;-2.08;68.39
72798;BME280;61084;55.816;37.036;2023-01-05T09:11:11;98416.81;;;-2.13;67.72
72798;BME280;61084;55.816;37.036;2023-01-05T09:13:38;98418.56;;;-2.15;67.89
72798;BME280;61084;55.816;37.036;2023-01-05T09:16:09;98415.22;;;-2.20;67.80
72798;BME280;61084;55.816;37.036;2023-01-05T09:18:35;98409.13;;;-2.16;67.69
72798;BME280;61084;55.816;37.036;2023-01-05T09:21:19;98413.44;;;-2.17;67.80
72798;BME280;61084;55.816;37.036;2023-01-05T09:23:45;98404.84;;;-2.17;67.02
72798;BME280;61084;55.816;37.036;2023-01-05T09:26:12;98405.66;;;-2.14;67.87
72798;BME280;61084;55.816;37.036;2023-01-05T09:28:39;98408.31;;;-2.18;67.18
72798;BME280;61084;55.816;37.036;2023-01-05T09:31:14;98399.63;;;-2.11;67.68
72798;BME280;61084;55.816;37.036;2023-01-05T09:33:40;98401.41;;;-2.15;67.23
72798;BME280;61084;55.816;37.036;2023-01-05T09:36:07;98393.69;;;-2.15;67.60
72798;BME280;61084;55.816;37.036;2023-01-05T09:38:33;98386.00;;;-2.16;67.49
72798;BME280;61084;55.816;37.036;2023-01-05T09:41:28;98390.38;;;-2.20;67.76
72798;BME280;61084;55.816;37.036;2023-01-05T09:44:31;98385.22;;;-2.20;67.45
72798;BME280;61084;55.816;37.036;2023-01-05T09:47:12;98386.00;;;-2.16;68.40
72798;BME280;61084;55.816;37.036;2023-01-05T09:49:40;98381.72;;;-2.16;67.91
72798;BME280;61084;55.816;37.036;2023-01-05T09:52:08;98382.47;;;-2.11;67.89
72798;BME280;61084;55.816;37.036;2023-01-05T09:54:37;98381.81;;;-2.20;68.18
72798;BME280;61084;55.816;37.036;2023-01-05T09:57:04;98382.59;;;-2.15;67.71
72798;BME280;61084;55.816;37.036;2023-01-05T09:59:41;98378.22;;;-2.12;67.54
72798;BME280;61084;55.816;37.036;2023-01-05T10:04:55;98378.44;;;-2.24;66.77
72798;BME280;61084;55.816;37.036;2023-01-05T10:07:51;98379.38;;;-2.28;67.61
72798;BME280;61084;55.816;37.036;2023-01-05T10:13:20;98369.97;;;-2.29;67.47
72798;BME280;61084;55.816;37.036;2023-01-05T10:15:52;98370.84;;;-2.30;66.88
72798;BME280;61084;55.816;37.036;2023-01-05T10:18:26;98366.59;;;-2.31;67.50
72798;BME280;61084;55.816;37.036;2023-01-05T10:21:14;98371.00;;;-2.39;66.15
72798;BME280;61084;55.816;37.036;2023-01-05T10:23:57;98372.75;;;-2.41;66.62
72798;BME280;61084;55.816;37.036;2023-01-05T10:26:42;98375.38;;;-2.43;66.46
72798;BME280;61084;55.816;37.036;2023-01-05T10:29:13;98370.31;;;-2.47;66.72
72798;BME280;61084;55.816;37.036;2023-01-05T10:32:03;98371.19;;;-2.50;66.39
72798;BME280;61084;55.816;37.036;2023-01-05T10:38:16;98371.25;;;-2.51;67.31
72798;BME280;61084;55.816;37.036;2023-01-05T10:41:04;98367.88;;;-2.55;66.83
72798;BME280;61084;55.816;37.036;2023-01-05T10:46:10;98380.19;;;-2.73;66.56
72798;BME280;61084;55.816;37.036;2023-01-05T10:48:39;98370.06;;;-2.81;66.61
72798;BME280;61084;55.816;37.036;2023-01-05T10:51:05;98374.25;;;-2.77;66.21
72798;BME280;61084;55.816;37.036;2023-01-05T10:53:37;98368.19;;;-2.73;65.50
72798;BME280;61084;55.816;37.036;2023-01-05T10:56:13;98373.38;;;-2.76;66.13
72798;BME280;61084;55.816;37.036;2023-01-05T10:58:41;98379.41;;;-2.77;66.48
72798;BME280;61084;55.816;37.036;2023-01-05T11:01:23;98375.13;;;-2.78;66.00
72798;BME280;61084;55.816;37.036;2023-01-05T11:04:00;98372.63;;;-2.82;65.50
72798;BME280;61084;55.816;37.036;2023-01-05T11:06:29;98370.28;;;-2.94;65.00
72798;BME280;61084;55.816;37.036;2023-01-05T11:09:23;98371.19;;;-3.00;65.84
72798;BME280;61084;55.816;37.036;2023-01-05T11:11:58;98366.84;;;-2.95;66.31
72798;BME280;61084;55.816;37.036;2023-01-05T11:14:27;98363.44;;;-2.94;66.12
72798;BME280;61084;55.816;37.036;2023-01-05T11:17:00;98370.34;;;-2.99;65.54
72798;BME280;61084;55.816;37.036;2023-01-05T11:19:34;98371.19;;;-2.98;66.11
72798;BME280;61084;55.816;37.036;2023-01-05T11:22:01;98374.63;;;-2.99;65.43
72798;BME280;61084;55.816;37.036;2023-01-05T11:24:45;98373.72;;;-2.97;65.32
72798;BME280;61084;55.816;37.036;2023-01-05T11:32:43;98361.22;;;-3.17;65.39
72798;BME280;61084;55.816;37.036;2023-01-05T11:35:30;98369.88;;;-3.24;65.88
72798;BME280;61084;55.816;37.036;2023-01-05T11:37:56;98365.66;;;-3.28;65.30
72798;BME280;61084;55.816;37.036;2023-01-05T11:40:27;98369.00;;;-3.23;65.55
72798;BME280;61084;55.816;37.036;2023-01-05T11:42:53;98363.97;;;-3.30;66.20
72798;BME280;61084;55.816;37.036;2023-01-05T11:45:22;98376.88;;;-3.35;66.28
72798;BME280;61084;55.816;37.036;2023-01-05T11:47:57;98360.72;;;-3.40;65.34
72798;BME280;61084;55.816;37.036;2023-01-05T11:50:26;98364.25;;;-3.48;64.71
72798;BME280;61084;55.816;37.036;2023-01-05T11:52:54;98363.38;;;-3.46;65.44
72798;BME280;61084;55.816;37.036;2023-01-05T11:55:33;98370.19;;;-3.45;64.78
72798;BME280;61084;55.816;37.036;2023-01-05T11:58:24;98369.22;;;-3.39;65.34
72798;BME280;61084;55.816;37.036;2023-01-05T12:01:22;98361.63;;;-3.44;65.95
72798;BME280;61084;55.816;37.036;2023-01-05T12:04:31;98359.16;;;-3.51;65.26
72798;BME280;61084;55.816;37.036;2023-01-05T12:07:16;98354.88;;;-3.51;65.30
72798;BME280;61084;55.816;37.036;2023-01-05T12:26:27;98363.81;;;-3.79;64.07
72798;BME280;61084;55.816;37.036;2023-01-05T12:45:45;98389.84;;;-4.12;63.83
72798;BME280;61084;55.816;37.036;2023-01-05T12:48:43;98384.78;;;-4.18;64.44
72798;BME280;61084;55.816;37.036;2023-01-05T12:56:36;98384.09;;;-4.31;63.94
72798;BME280;61084;55.816;37.036;2023-01-05T12:59:16;98396.00;;;-4.30;64.07
72798;BME280;61084;55.816;37.036;2023-01-05T13:04:40;98401.22;;;-4.37;64.00
72798;BME280;61084;55.816;37.036;2023-01-05T13:07:12;98400.34;;;-4.36;64.05
72798;BME280;61084;55.816;37.036;2023-01-05T13:09:41;98408.88;;;-4.36;64.22
72798;BME280;61084;55.816;37.036;2023-01-05T13:12:09;98403.81;;;-4.43;64.00
72798;BME280;61084;55.816;37.036;2023-01-05T13:14:46;98400.47;;;-4.50;63.93
72798;BME280;61084;55.816;37.036;2023-01-05T13:17:33;98408.25;;;-4.57;63.09
72798;BME280;61084;55.816;37.036;2023-01-05T13:20:09;98399.81;;;-4.69;63.85
72798;BME280;61084;55.816;37.036;2023-01-05T13:22:42;98395.59;;;-4.73;64.05
72798;BME280;61084;55.816;37.036;2023-01-05T13:25:20;98392.19;;;-4.76;63.78
72798;BME280;61084;55.816;37.036;2023-01-05T13:27:47;98393.94;;;-4.80;63.89
72798;BME280;61084;55.816;37.036;2023-01-05T13:30:26;98398.25;;;-4.83;64.04
72798;BME280;61084;55.816;37.036;2023-01-05T13:36:45;98400.94;;;-5.03;64.35
72798;BME280;61084;55.816;37.036;2023-01-05T13:39:53;98398.44;;;-5.07;64.44
72798;BME280;61084;55.816;37.036;2023-01-05T13:42:24;98403.66;;;-5.22;64.04
72798;BME280;61084;55.816;37.036;2023-01-05T13:53:24;98419.84;;;-5.23;65.10
72798;BME280;61084;55.816;37.036;2023-01-05T13:55:56;98413.00;;;-5.20;64.89
72798;BME280;61084;55.816;37.036;2023-01-05T14:00:51;98418.13;;;-5.20;64.92
72798;BME280;61084;55.816;37.036;2023-01-05T14:04:14;98422.34;;;-5.14;65.12
72798;BME280;61084;55.816;37.036;2023-01-05T14:06:19;98418.91;;;-5.12;65.10
72798;BME280;61084;55.816;37.036;2023-01-05T14:09:03;98423.16;;;-5.11;65.51
72798;BME280;61084;55.816;37.036;2023-01-05T14:11:29;98438.53;;;-5.14;65.49
72798;BME280;61084;55.816;37.036;2023-01-05T14:22:22;98451.53;;;-5.52;66.13
72798;BME280;61084;55.816;37.036;2023-01-05T14:24:49;98455.84;;;-5.64;65.50
72798;BME280;61084;55.816;37.036;2023-01-05T14:27:20;98458.47;;;-5.76;65.37
72798;BME280;61084;55.816;37.036;2023-01-05T14:32:29;98450.81;;;-5.82;66.28
72798;BME280;61084;55.816;37.036;2023-01-05T14:34:59;98460.22;;;-5.86;65.82
72798;BME280;61084;55.816;37.036;2023-01-05T14:40:39;98458.56;;;-5.96;65.50
72798;BME280;61084;55.816;37.036;2023-01-05T14:43:26;98467.94;;;-6.04;65.32
72798;BME280;61084;55.816;37.036;2023-01-05T14:46:10;98463.69;;;-6.13;65.06
72798;BME280;61084;55.816;37.036;2023-01-05T14:48:39;98464.56;;;-6.20;65.33
72798;BME280;61084;55.816;37.036;2023-01-05T14:51:17;98472.22;;;-6.21;64.97
72798;BME280;61084;55.816;37.036;2023-01-05T14:53:48;98469.66;;;-6.20;64.72
72798;BME280;61084;55.816;37.036;2023-01-05T14:58:57;98465.44;;;-6.27;65.19
72798;BME280;61084;55.816;37.036;2023-01-05T15:01:32;98461.19;;;-6.23;64.88
72798;BME280;61084;55.816;37.036;2023-01-05T15:04:49;98463.75;;;-6.32;64.99